LYBE/BEG METAR and TAF weather

Enter ICAO airport designator
Station Type Date Time Source
LYBE METAR 2018/09/21 23:00 UTC NOAA

LYBE 212300Z 14009KT CAVOK 20/10 Q1015 NOSIG


Station Type Date Time Source
LYBE Decoded METAR 2018/09/21 23:00 UTC NOAA

Beograd / Surcin, Serbia and Montenegro (LYBE) 44-49N 020-17E 99M
Sep 21, 2018 - 07:00 PM EDT / 2018.09.21 2300 UTC
Wind: from the SE (140 degrees) at 10 MPH (9 KT):0
Visibility: greater than 7 mile(s):0
Temperature: 68 F (20 C)
Dew Point: 50 F (10 C)
Relative Humidity: 52%
Pressure (altimeter): 29.97 in. Hg (1015 hPa)
ob: LYBE 212300Z 14009KT CAVOK 20/10 Q1015 NOSIG
cycle: 23

Station Type Date Time Source
LYBE TAF 2018/09/21 18:21 UTC NOAA

TAF LYBE 211700Z 2118/2218 15008KT CAVOK TX26/2210Z TN15/2204Z
BECMG 2207/2209 34012KT
TEMPO 2210/2215 35015G25KT


Example: see airport list